createdAt,value
2019-02-07T00:00:18.954Z,19.40
2019-02-07T00:02:48.085Z,19.30
2019-02-07T00:05:17.047Z,19.30
2019-02-07T00:07:46.079Z,19.20
2019-02-07T00:10:15.393Z,19.10
2019-02-07T00:12:44.430Z,19.10
2019-02-07T00:15:14.440Z,19.00
2019-02-07T00:17:43.906Z,19.00
2019-02-07T00:20:13.114Z,18.90
2019-02-07T00:22:42.148Z,18.90
2019-02-07T00:25:11.645Z,18.90
2019-02-07T00:27:40.601Z,18.80
2019-02-07T00:30:12.966Z,18.80
2019-02-07T00:32:42.297Z,18.70
2019-02-07T00:35:11.375Z,18.70
2019-02-07T00:37:40.406Z,18.60
2019-02-07T00:40:12.353Z,18.60
2019-02-07T00:42:41.434Z,18.60
2019-02-07T00:45:12.270Z,18.50
2019-02-07T00:47:42.094Z,18.50
2019-02-07T00:50:13.224Z,18.40
2019-02-07T00:52:42.192Z,18.40
2019-02-07T00:55:12.746Z,18.40
2019-02-07T00:57:42.386Z,18.30
2019-02-07T01:00:15.219Z,18.30
2019-02-07T01:02:44.190Z,18.30
2019-02-07T01:05:14.359Z,18.30
2019-02-07T01:07:43.407Z,18.30
2019-02-07T01:10:13.575Z,18.20
2019-02-07T01:12:43.541Z,18.20
2019-02-07T01:15:12.926Z,18.20
2019-02-07T01:17:41.978Z,18.10
2019-02-07T01:20:12.201Z,18.10
2019-02-07T01:22:41.190Z,18.10
2019-02-07T01:25:12.618Z,18.10
2019-02-07T01:27:41.799Z,18.10
2019-02-07T01:30:12.756Z,18.00
2019-02-07T01:32:41.789Z,18.00
2019-02-07T01:35:10.862Z,18.00
2019-02-07T01:37:40.047Z,17.90
2019-02-07T01:40:12.106Z,17.80
2019-02-07T01:42:41.415Z,17.80
2019-02-07T01:45:13.344Z,17.80
2019-02-07T01:47:42.546Z,17.80
2019-02-07T01:50:13.342Z,17.70
2019-02-07T01:52:43.282Z,17.70
2019-02-07T01:55:12.506Z,17.70
2019-02-07T01:57:41.604Z,17.60
2019-02-07T02:00:13.558Z,17.60
2019-02-07T02:02:42.608Z,17.60
2019-02-07T02:05:14.018Z,17.60
2019-02-07T02:07:43.015Z,17.60
2019-02-07T02:10:18.047Z,17.60
2019-02-07T02:12:47.218Z,17.60
2019-02-07T02:15:24.469Z,17.60
2019-02-07T02:17:48.586Z,17.50
2019-02-07T02:20:18.018Z,17.50
2019-02-07T02:22:47.058Z,17.50
2019-02-07T02:25:16.330Z,17.50
2019-02-07T02:27:45.683Z,17.40
2019-02-07T02:30:17.131Z,17.40
2019-02-07T02:32:46.145Z,17.40
2019-02-07T02:35:15.198Z,17.40
2019-02-07T02:37:44.172Z,17.40
2019-02-07T02:40:13.831Z,17.40
2019-02-07T02:42:42.798Z,17.40
2019-02-07T02:45:13.022Z,17.30
2019-02-07T02:47:42.174Z,17.30
2019-02-07T02:50:13.577Z,17.40
2019-02-07T02:52:42.726Z,17.30
2019-02-07T02:55:14.142Z,17.30
2019-02-07T02:57:43.409Z,17.30
2019-02-07T03:00:19.487Z,17.30
2019-02-07T03:03:10.554Z,17.30
2019-02-07T03:06:04.716Z,17.30
2019-02-07T03:08:58.543Z,17.30
2019-02-07T03:11:55.559Z,17.30
2019-02-07T03:14:46.652Z,17.30
2019-02-07T03:17:41.788Z,17.30
2019-02-07T03:20:36.126Z,17.20
2019-02-07T03:23:27.422Z,17.20
2019-02-07T03:26:28.284Z,17.20
2019-02-07T03:29:19.214Z,17.20
2019-02-07T03:32:00.707Z,17.20
2019-02-07T03:34:48.900Z,17.10
2019-02-07T03:37:46.836Z,17.10
2019-02-07T03:40:51.417Z,17.10
2019-02-07T03:43:54.427Z,17.10
2019-02-07T03:46:41.211Z,17.10
2019-02-07T03:49:35.070Z,17.10
2019-02-07T03:52:23.722Z,17.10
2019-02-07T03:55:31.500Z,17.10
2019-02-07T03:58:18.111Z,17.10
2019-02-07T04:01:06.339Z,17.10
2019-02-07T04:04:04.007Z,17.10
2019-02-07T04:06:48.367Z,17.10
2019-02-07T04:09:41.860Z,17.10
2019-02-07T04:12:28.930Z,17.00
2019-02-07T04:15:16.055Z,17.00
2019-02-07T04:18:08.284Z,17.00
2019-02-07T04:20:54.907Z,17.00
2019-02-07T04:23:42.904Z,17.00
2019-02-07T04:26:30.085Z,17.00
2019-02-07T04:29:24.665Z,17.00
2019-02-07T04:32:12.982Z,17.00
2019-02-07T04:35:00.453Z,17.00
2019-02-07T04:37:41.847Z,16.90
2019-02-07T04:40:28.612Z,16.90
2019-02-07T04:43:16.178Z,16.90
2019-02-07T04:46:26.575Z,16.90
2019-02-07T04:49:15.900Z,16.90
2019-02-07T04:52:03.988Z,16.90
2019-02-07T04:54:48.019Z,16.90
2019-02-07T04:57:35.550Z,16.90
2019-02-07T05:00:21.005Z,16.90
2019-02-07T05:02:58.734Z,16.90
2019-02-07T05:05:55.826Z,16.90
2019-02-07T05:08:49.900Z,16.80
2019-02-07T05:11:47.173Z,16.80
2019-02-07T05:14:28.923Z,16.90
2019-02-07T05:17:09.214Z,16.80
2019-02-07T05:19:56.420Z,16.80
2019-02-07T05:22:54.818Z,16.80
2019-02-07T05:25:58.078Z,16.80
2019-02-07T05:28:49.712Z,16.80
2019-02-07T05:31:27.586Z,16.80
2019-02-07T05:34:14.406Z,16.80
2019-02-07T05:37:02.891Z,16.80
2019-02-07T05:40:09.746Z,16.80
2019-02-07T05:43:03.794Z,16.70
2019-02-07T05:45:58.106Z,16.70
2019-02-07T05:48:41.526Z,16.70
2019-02-07T05:51:34.209Z,16.70
2019-02-07T05:54:21.134Z,16.70
2019-02-07T05:57:08.442Z,16.70
2019-02-07T05:59:56.862Z,16.70
2019-02-07T06:02:45.685Z,16.70
2019-02-07T06:05:32.568Z,16.70
2019-02-07T06:08:17.917Z,16.70
2019-02-07T06:11:18.237Z,16.70
2019-02-07T06:14:16.346Z,16.70
2019-02-07T06:17:07.182Z,16.70
2019-02-07T06:19:53.106Z,16.70
2019-02-07T06:22:33.052Z,16.70
2019-02-07T06:25:29.135Z,16.70
2019-02-07T06:28:35.298Z,16.70
2019-02-07T06:31:38.786Z,16.70
2019-02-07T06:34:29.868Z,16.60
2019-02-07T06:37:17.900Z,16.60
2019-02-07T06:40:18.286Z,16.70
2019-02-07T06:42:56.954Z,16.60
2019-02-07T06:45:32.354Z,16.60
2019-02-07T06:48:26.907Z,16.70
2019-02-07T06:51:05.578Z,16.70
2019-02-07T06:54:00.458Z,16.60
2019-02-07T06:56:43.895Z,16.70
2019-02-07T06:59:32.306Z,16.70
2019-02-07T07:02:20.380Z,16.70
2019-02-07T07:05:01.326Z,16.70
2019-02-07T07:08:04.915Z,16.70
2019-02-07T07:10:56.418Z,16.70
2019-02-07T07:13:36.322Z,16.70
2019-02-07T07:16:19.506Z,16.60
2019-02-07T07:19:16.761Z,16.50
2019-02-07T07:22:03.654Z,16.50
2019-02-07T07:25:10.284Z,16.50
2019-02-07T07:28:01.217Z,16.60
2019-02-07T07:30:55.278Z,16.50
2019-02-07T07:33:41.950Z,16.50
2019-02-07T07:36:28.755Z,16.50
2019-02-07T07:39:16.749Z,16.50
2019-02-07T07:42:01.098Z,16.50
2019-02-07T07:44:42.198Z,16.40
2019-02-07T07:47:36.007Z,16.40
2019-02-07T07:50:35.686Z,16.40
2019-02-07T07:53:29.402Z,16.40
2019-02-07T07:56:09.598Z,16.40
2019-02-07T07:59:00.622Z,16.40
2019-02-07T08:01:56.064Z,16.40
2019-02-07T08:04:50.027Z,16.40
2019-02-07T08:07:37.330Z,16.40
2019-02-07T08:10:35.462Z,16.40
2019-02-07T08:13:22.324Z,16.40
2019-02-07T08:16:19.632Z,16.30
2019-02-07T08:19:22.744Z,16.30
2019-02-07T08:22:09.075Z,16.30
2019-02-07T08:24:53.011Z,16.30
2019-02-07T08:27:44.024Z,16.30
2019-02-07T08:30:36.540Z,16.30
2019-02-07T08:33:30.728Z,16.40
2019-02-07T08:36:17.938Z,16.40
2019-02-07T08:39:01.574Z,16.40
2019-02-07T08:42:08.282Z,16.40
2019-02-07T08:44:56.098Z,16.50
2019-02-07T08:47:36.093Z,16.50
2019-02-07T08:50:27.886Z,16.50
2019-02-07T08:53:28.054Z,16.50
2019-02-07T08:56:31.383Z,16.50
2019-02-07T08:59:19.667Z,16.50
2019-02-07T09:02:06.727Z,16.50
2019-02-07T09:05:13.746Z,16.60
2019-02-07T09:08:11.015Z,16.60
2019-02-07T09:10:57.806Z,16.60
2019-02-07T09:13:45.831Z,16.60
2019-02-07T09:16:36.635Z,16.60
2019-02-07T09:19:16.358Z,16.60
2019-02-07T09:22:05.522Z,16.60
2019-02-07T09:24:58.054Z,16.70
2019-02-07T09:27:45.115Z,16.70
2019-02-07T09:30:37.957Z,16.70
2019-02-07T09:33:26.963Z,16.70
2019-02-07T09:36:20.839Z,16.70
2019-02-07T09:39:10.754Z,16.80
2019-02-07T09:41:54.439Z,16.80
2019-02-07T09:44:41.640Z,16.70
2019-02-07T09:47:38.431Z,16.70
2019-02-07T09:50:30.087Z,16.70
2019-02-07T09:53:24.353Z,16.70
2019-02-07T09:56:05.308Z,16.80
2019-02-07T09:58:54.069Z,16.70
2019-02-07T10:01:58.477Z,16.70
2019-02-07T10:04:46.527Z,16.80
2019-02-07T10:07:38.208Z,16.80
2019-02-07T10:10:33.182Z,16.80
2019-02-07T10:13:18.867Z,16.80
2019-02-07T10:16:09.653Z,16.90
2019-02-07T10:19:06.935Z,16.90
2019-02-07T10:21:55.266Z,16.90
2019-02-07T10:24:36.239Z,16.90
2019-02-07T10:27:33.734Z,17.00
2019-02-07T10:30:24.581Z,16.90
2019-02-07T10:33:11.370Z,17.00
2019-02-07T10:36:01.614Z,17.00
2019-02-07T10:38:52.956Z,17.10
2019-02-07T10:41:41.389Z,17.10
2019-02-07T10:44:22.922Z,17.10
2019-02-07T10:47:10.710Z,17.20
2019-02-07T10:49:59.417Z,17.20
2019-02-07T10:52:40.212Z,17.30
2019-02-07T10:55:31.350Z,17.30
2019-02-07T10:58:18.559Z,17.30
2019-02-07T11:01:05.926Z,17.30
2019-02-07T11:04:01.189Z,17.40
2019-02-07T11:07:01.395Z,17.40
2019-02-07T11:09:55.935Z,17.50
2019-02-07T11:12:52.918Z,17.50
2019-02-07T11:15:39.890Z,17.60
2019-02-07T11:18:30.938Z,17.70
2019-02-07T11:21:28.901Z,17.80
2019-02-07T11:24:32.206Z,17.80
2019-02-07T11:27:25.397Z,17.80
2019-02-07T11:30:16.236Z,17.80
2019-02-07T11:33:00.022Z,17.80
2019-02-07T11:35:40.258Z,17.80
2019-02-07T11:38:21.789Z,17.80
2019-02-07T11:41:15.924Z,17.80
2019-02-07T11:43:56.734Z,17.70
2019-02-07T11:46:41.971Z,17.70
2019-02-07T11:49:38.034Z,17.70
2019-02-07T11:52:28.818Z,17.70
2019-02-07T11:55:25.698Z,17.70
2019-02-07T11:58:03.739Z,17.70
2019-02-07T12:00:55.715Z,17.60
2019-02-07T12:04:02.600Z,17.70
2019-02-07T12:06:50.636Z,17.60
2019-02-07T12:09:38.617Z,17.60
2019-02-07T12:12:24.979Z,17.70
2019-02-07T12:15:03.268Z,17.70
2019-02-07T12:18:00.683Z,17.70
2019-02-07T12:20:49.171Z,17.70
2019-02-07T12:23:43.988Z,17.70
2019-02-07T12:26:34.470Z,17.70
2019-02-07T12:29:34.433Z,17.70
2019-02-07T12:32:35.102Z,17.70
2019-02-07T12:35:13.545Z,17.60
2019-02-07T12:38:10.792Z,17.70
2019-02-07T12:41:18.425Z,17.70
2019-02-07T12:44:27.343Z,17.70
2019-02-07T12:47:13.426Z,17.70
2019-02-07T12:50:01.430Z,17.70
2019-02-07T12:53:01.495Z,17.70
2019-02-07T12:55:55.306Z,17.70
2019-02-07T12:58:49.868Z,17.70
2019-02-07T13:01:40.931Z,17.70
2019-02-07T13:04:31.148Z,17.70
2019-02-07T13:07:17.984Z,17.80
2019-02-07T13:10:04.938Z,17.90
2019-02-07T13:13:05.102Z,17.90
2019-02-07T13:15:58.019Z,17.80
2019-02-07T13:18:48.910Z,17.70
2019-02-07T13:21:37.426Z,17.70
2019-02-07T13:24:26.889Z,17.80
2019-02-07T13:27:19.008Z,17.90
2019-02-07T13:30:15.190Z,17.90
2019-02-07T13:33:03.027Z,17.80
2019-02-07T13:35:56.818Z,17.80
2019-02-07T13:38:43.852Z,17.70
2019-02-07T13:41:32.983Z,17.70
2019-02-07T13:44:36.506Z,17.60
2019-02-07T13:47:17.883Z,17.60
2019-02-07T13:50:04.934Z,17.60
2019-02-07T13:53:11.055Z,17.70
2019-02-07T13:56:09.451Z,17.80
2019-02-07T13:58:57.893Z,17.80
2019-02-07T14:01:56.773Z,17.90
2019-02-07T14:04:42.051Z,17.90
2019-02-07T14:07:24.758Z,17.90
2019-02-07T14:10:19.852Z,17.90
2019-02-07T14:13:00.230Z,17.90
2019-02-07T14:15:53.362Z,17.90
2019-02-07T14:18:59.711Z,17.80
2019-02-07T14:21:46.154Z,17.80
2019-02-07T14:24:38.391Z,17.80
2019-02-07T14:27:29.178Z,17.70
2019-02-07T14:30:12.435Z,17.70
2019-02-07T14:33:02.781Z,17.60
2019-02-07T14:35:53.903Z,17.60
2019-02-07T14:38:40.775Z,17.50
2019-02-07T14:41:27.665Z,17.50
2019-02-07T14:44:03.885Z,17.50
2019-02-07T14:46:58.535Z,17.50
2019-02-07T14:49:27.603Z,17.40
2019-02-07T14:51:57.042Z,17.40
2019-02-07T14:54:26.112Z,17.40
2019-02-07T14:56:55.166Z,17.40
2019-02-07T14:59:24.446Z,17.40
2019-02-07T15:01:53.530Z,17.40
2019-02-07T15:04:22.679Z,17.40
2019-02-07T15:06:52.623Z,17.40
2019-02-07T15:09:22.098Z,17.40
2019-02-07T15:11:51.157Z,17.30
2019-02-07T15:14:20.480Z,17.40
2019-02-07T15:16:50.074Z,17.40
2019-02-07T15:19:19.129Z,17.40
2019-02-07T15:21:48.659Z,17.30
2019-02-07T15:24:18.143Z,17.30
2019-02-07T15:26:47.331Z,17.30
2019-02-07T15:29:16.542Z,17.30
2019-02-07T15:31:45.614Z,17.30
2019-02-07T15:34:14.654Z,17.30
2019-02-07T15:36:45.882Z,17.30
2019-02-07T15:39:15.954Z,17.20
2019-02-07T15:41:45.006Z,17.20
2019-02-07T15:44:14.052Z,17.10
2019-02-07T15:46:43.591Z,17.10
2019-02-07T15:49:12.695Z,17.10
2019-02-07T15:51:41.758Z,17.10
2019-02-07T15:54:10.851Z,17.00
2019-02-07T15:56:39.864Z,17.00
2019-02-07T15:59:31.337Z,17.00
2019-02-07T16:02:22.619Z,16.90
2019-02-07T16:04:51.939Z,17.00
2019-02-07T16:07:21.066Z,17.00
2019-02-07T16:09:50.113Z,16.90
2019-02-07T16:12:19.458Z,16.90
2019-02-07T16:14:48.429Z,16.90
2019-02-07T16:17:17.765Z,16.80
2019-02-07T16:19:47.318Z,16.80
2019-02-07T16:22:16.359Z,16.70
2019-02-07T16:24:45.529Z,16.70
2019-02-07T16:27:15.135Z,16.60
2019-02-07T16:29:44.337Z,16.60
2019-02-07T16:32:12.851Z,16.50
2019-02-07T16:34:41.919Z,16.50
2019-02-07T16:37:10.999Z,16.40
2019-02-07T16:39:40.126Z,16.40
2019-02-07T16:42:09.542Z,16.30
2019-02-07T16:44:38.510Z,16.30
2019-02-07T16:47:07.556Z,16.30
2019-02-07T16:49:36.798Z,16.60
2019-02-07T16:52:05.884Z,17.40
2019-02-07T16:54:34.873Z,18.10
2019-02-07T16:57:03.993Z,19.10
2019-02-07T16:59:33.544Z,19.90
2019-02-07T17:02:03.053Z,20.80
2019-02-07T17:04:32.660Z,21.80
2019-02-07T17:07:01.667Z,22.60
2019-02-07T17:09:35.410Z,23.80
2019-02-07T17:12:04.972Z,24.60
2019-02-07T17:14:34.130Z,25.30
2019-02-07T17:17:05.444Z,26.00
2019-02-07T17:19:34.195Z,26.70
2019-02-07T17:22:03.298Z,27.30
2019-02-07T17:24:32.327Z,27.00
2019-02-07T17:27:02.312Z,26.90
2019-02-07T17:29:31.367Z,27.30
2019-02-07T17:32:00.410Z,28.40
2019-02-07T17:34:29.585Z,29.30
2019-02-07T17:36:58.651Z,30.10
2019-02-07T17:39:27.662Z,29.80
2019-02-07T17:41:59.495Z,29.30
2019-02-07T17:44:27.890Z,30.00
2019-02-07T17:46:57.145Z,29.80
2019-02-07T17:49:26.162Z,28.70
2019-02-07T17:51:55.215Z,28.10
2019-02-07T17:54:24.426Z,29.00
2019-02-07T17:56:53.894Z,30.00
2019-02-07T17:59:23.012Z,29.90
2019-02-07T18:01:52.062Z,29.10
2019-02-07T18:04:21.234Z,29.50
2019-02-07T18:06:50.845Z,30.30
2019-02-07T18:09:19.962Z,30.20
2019-02-07T18:11:49.254Z,29.40
2019-02-07T18:14:18.687Z,29.40
2019-02-07T18:16:47.659Z,29.90
2019-02-07T18:19:16.822Z,29.70
2019-02-07T18:21:45.943Z,29.20
2019-02-07T18:24:15.105Z,28.50
2019-02-07T18:26:44.105Z,28.50
2019-02-07T18:29:13.557Z,28.60
2019-02-07T18:31:42.943Z,28.40
2019-02-07T18:34:12.247Z,27.80
2019-02-07T18:36:41.367Z,27.30
2019-02-07T18:39:10.672Z,27.80
2019-02-07T18:41:40.016Z,27.80
2019-02-07T18:44:09.656Z,27.30
2019-02-07T18:46:38.959Z,27.00
2019-02-07T18:49:08.562Z,27.30
2019-02-07T18:51:45.249Z,27.60
2019-02-07T18:54:08.530Z,27.30
2019-02-07T18:56:37.696Z,26.80
2019-02-07T18:59:06.586Z,26.30
2019-02-07T19:01:35.733Z,26.90
2019-02-07T19:04:04.946Z,27.30
2019-02-07T19:06:34.527Z,27.00
2019-02-07T19:09:04.139Z,26.50
2019-02-07T19:11:33.300Z,26.20
2019-02-07T19:14:02.618Z,26.70
2019-02-07T19:16:31.693Z,27.10
2019-02-07T19:19:01.011Z,26.80
2019-02-07T19:21:30.003Z,26.50
2019-02-07T19:23:59.991Z,26.00
2019-02-07T19:26:29.230Z,26.30
2019-02-07T19:28:58.286Z,26.60
2019-02-07T19:31:27.513Z,26.50
2019-02-07T19:33:56.651Z,26.10
2019-02-07T19:36:25.695Z,25.90
2019-02-07T19:38:54.665Z,26.30
2019-02-07T19:41:24.027Z,26.30
2019-02-07T19:43:53.221Z,26.00
2019-02-07T19:46:22.787Z,25.50
2019-02-07T19:48:52.557Z,25.70
2019-02-07T19:51:21.592Z,26.20
2019-02-07T19:53:50.649Z,26.00
2019-02-07T19:56:19.966Z,25.50
2019-02-07T19:58:48.953Z,25.20
2019-02-07T20:01:18.010Z,25.20
2019-02-07T20:03:47.193Z,25.30
2019-02-07T20:06:16.549Z,25.10
2019-02-07T20:08:46.786Z,24.80
2019-02-07T20:11:15.918Z,24.70
2019-02-07T20:13:45.186Z,25.10
2019-02-07T20:16:14.244Z,25.20
2019-02-07T20:18:44.268Z,24.90
2019-02-07T20:21:13.389Z,24.60
2019-02-07T20:23:42.617Z,24.60
2019-02-07T20:26:12.275Z,24.80
2019-02-07T20:28:41.393Z,24.80
2019-02-07T20:31:12.008Z,24.50
2019-02-07T20:36:26.915Z,24.40
2019-02-07T20:38:55.987Z,24.80
2019-02-07T20:41:25.355Z,24.70
2019-02-07T20:43:55.174Z,24.50
2019-02-07T20:46:24.502Z,24.40
2019-02-07T20:48:54.170Z,24.70
2019-02-07T20:51:23.471Z,25.10
2019-02-07T20:53:54.617Z,24.90
2019-02-07T20:56:23.765Z,24.60
2019-02-07T20:58:52.990Z,24.50
2019-02-07T21:01:22.018Z,24.70
2019-02-07T21:03:52.066Z,24.70
2019-02-07T21:06:21.651Z,24.80
2019-02-07T21:08:50.845Z,24.60
2019-02-07T21:11:19.914Z,24.60
2019-02-07T21:13:49.061Z,25.00
2019-02-07T21:16:18.174Z,25.00
2019-02-07T21:18:47.222Z,24.80
2019-02-07T21:21:16.499Z,24.50
2019-02-07T21:23:45.745Z,24.80
2019-02-07T21:26:15.711Z,25.20
2019-02-07T21:28:44.850Z,25.00
2019-02-07T21:31:13.891Z,24.70
2019-02-07T21:33:43.425Z,24.70
2019-02-07T21:36:12.581Z,25.10
2019-02-07T21:38:42.086Z,25.30
2019-02-07T21:41:11.856Z,25.00
2019-02-07T21:43:41.149Z,24.70
2019-02-07T21:46:10.338Z,24.70
2019-02-07T21:48:39.530Z,25.10
2019-02-07T21:51:08.722Z,25.10
2019-02-07T21:53:38.262Z,24.90
2019-02-07T21:56:07.303Z,24.60
2019-02-07T21:58:36.551Z,24.80
2019-02-07T22:01:05.617Z,25.00
2019-02-07T22:03:35.011Z,25.00
2019-02-07T22:06:04.342Z,24.80
2019-02-07T22:08:33.454Z,24.60
2019-02-07T22:11:02.507Z,25.10
2019-02-07T22:13:31.574Z,25.30
2019-02-07T22:16:00.687Z,25.00
2019-02-07T22:18:29.796Z,24.80
2019-02-07T22:20:58.859Z,24.70
2019-02-07T22:23:28.678Z,24.50
2019-02-07T22:25:57.818Z,24.30
2019-02-07T22:28:26.866Z,24.30
2019-02-07T22:30:55.829Z,24.10
2019-02-07T22:33:24.894Z,23.90
2019-02-07T22:35:54.976Z,23.50
2019-02-07T22:38:24.287Z,23.10
2019-02-07T22:40:53.551Z,22.80
2019-02-07T22:43:22.838Z,22.50
2019-02-07T22:45:52.222Z,22.40
2019-02-07T22:48:21.629Z,22.20
2019-02-07T22:50:50.715Z,22.00
2019-02-07T22:53:19.682Z,21.90
2019-02-07T22:55:48.936Z,21.80
2019-02-07T22:58:18.009Z,21.60
2019-02-07T23:01:26.582Z,21.50
2019-02-07T23:04:00.581Z,21.40
2019-02-07T23:06:29.881Z,21.30
2019-02-07T23:08:58.922Z,21.10
2019-02-07T23:11:28.081Z,21.00
2019-02-07T23:13:57.060Z,20.90
2019-02-07T23:16:26.939Z,20.70
2019-02-07T23:18:56.154Z,20.60
2019-02-07T23:21:25.202Z,20.50
2019-02-07T23:23:54.474Z,20.40
2019-02-07T23:26:23.643Z,20.30
2019-02-07T23:28:53.279Z,20.20
2019-02-07T23:31:22.326Z,20.10
2019-02-07T23:33:51.273Z,20.00
2019-02-07T23:36:20.654Z,19.90
2019-02-07T23:38:49.844Z,19.80
2019-02-07T23:41:19.758Z,19.70
2019-02-07T23:43:49.282Z,19.70
2019-02-07T23:46:18.642Z,19.60
2019-02-07T23:48:48.281Z,19.50
2019-02-07T23:51:17.731Z,19.40
2019-02-07T23:53:47.164Z,19.50
2019-02-07T23:56:16.191Z,19.40
2019-02-07T23:58:45.544Z,19.30
